sensor_id;sensor_type;location;lat;lon;timestamp;P1;durP1;ratioP1;P2;durP2;ratioP2
11052;SDS011;55230;42.602;23.470;2022-12-16T00:00:21;142.50;;;51.00;;
11052;SDS011;55230;42.602;23.470;2022-12-16T00:02:51;99.37;;;47.57;;
11052;SDS011;55230;42.602;23.470;2022-12-16T00:05:18;99.07;;;48.37;;
11052;SDS011;55230;42.602;23.470;2022-12-16T00:07:46;93.13;;;48.10;;
11052;SDS011;55230;42.602;23.470;2022-12-16T00:10:13;108.63;;;54.10;;
11052;SDS011;55230;42.602;23.470;2022-12-16T00:12:40;103.87;;;53.77;;
11052;SDS011;55230;42.602;23.470;2022-12-16T00:15:07;86.50;;;46.77;;
11052;SDS011;55230;42.602;23.470;2022-12-16T00:17:35;119.63;;;70.87;;
11052;SDS011;55230;42.602;23.470;2022-12-16T00:20:05;82.77;;;45.13;;
11052;SDS011;55230;42.602;23.470;2022-12-16T00:22:35;98.70;;;52.37;;
11052;SDS011;55230;42.602;23.470;2022-12-16T00:25:02;105.27;;;54.80;;
11052;SDS011;55230;42.602;23.470;2022-12-16T00:27:29;86.63;;;47.90;;
11052;SDS011;55230;42.602;23.470;2022-12-16T00:29:56;33.43;;;20.60;;
11052;SDS011;55230;42.602;23.470;2022-12-16T00:32:24;15.53;;;9.63;;
11052;SDS011;55230;42.602;23.470;2022-12-16T00:34:50;15.90;;;10.30;;
11052;SDS011;55230;42.602;23.470;2022-12-16T00:37:19;51.63;;;28.97;;
11052;SDS011;55230;42.602;23.470;2022-12-16T00:39:46;16.20;;;9.83;;
11052;SDS011;55230;42.602;23.470;2022-12-16T00:42:12;16.67;;;10.10;;
11052;SDS011;55230;42.602;23.470;2022-12-16T00:44:39;16.97;;;11.07;;
11052;SDS011;55230;42.602;23.470;2022-12-16T00:47:06;15.13;;;9.30;;
11052;SDS011;55230;42.602;23.470;2022-12-16T00:49:33;17.80;;;10.57;;
11052;SDS011;55230;42.602;23.470;2022-12-16T00:52:00;15.40;;;10.33;;
11052;SDS011;55230;42.602;23.470;2022-12-16T00:54:28;16.43;;;11.00;;
11052;SDS011;55230;42.602;23.470;2022-12-16T00:56:55;18.30;;;12.07;;
11052;SDS011;55230;42.602;23.470;2022-12-16T00:59:21;15.73;;;10.40;;
11052;SDS011;55230;42.602;23.470;2022-12-16T01:01:48;28.10;;;18.50;;
11052;SDS011;55230;42.602;23.470;2022-12-16T01:04:15;28.47;;;17.47;;
11052;SDS011;55230;42.602;23.470;2022-12-16T01:06:41;77.70;;;48.00;;
11052;SDS011;55230;42.602;23.470;2022-12-16T01:09:08;93.63;;;53.57;;
11052;SDS011;55230;42.602;23.470;2022-12-16T01:11:36;45.10;;;28.00;;
11052;SDS011;55230;42.602;23.470;2022-12-16T01:14:03;61.20;;;38.17;;
11052;SDS011;55230;42.602;23.470;2022-12-16T01:16:30;40.67;;;25.83;;
11052;SDS011;55230;42.602;23.470;2022-12-16T01:18:59;24.43;;;17.70;;
11052;SDS011;55230;42.602;23.470;2022-12-16T01:21:26;80.60;;;47.77;;
11052;SDS011;55230;42.602;23.470;2022-12-16T01:23:52;64.47;;;40.50;;
11052;SDS011;55230;42.602;23.470;2022-12-16T01:26:19;140.63;;;59.37;;
11052;SDS011;55230;42.602;23.470;2022-12-16T01:28:47;396.13;;;81.67;;
11052;SDS011;55230;42.602;23.470;2022-12-16T01:31:14;379.73;;;79.17;;
11052;SDS011;55230;42.602;23.470;2022-12-16T01:33:43;627.10;;;94.97;;
11052;SDS011;55230;42.602;23.470;2022-12-16T01:36:10;511.53;;;85.63;;
11052;SDS011;55230;42.602;23.470;2022-12-16T01:38:37;355.87;;;69.57;;
11052;SDS011;55230;42.602;23.470;2022-12-16T01:41:04;186.00;;;56.33;;
11052;SDS011;55230;42.602;23.470;2022-12-16T01:43:32;70.97;;;39.57;;
11052;SDS011;55230;42.602;23.470;2022-12-16T01:46:02;21.87;;;12.80;;
11052;SDS011;55230;42.602;23.470;2022-12-16T01:48:34;16.37;;;10.53;;
11052;SDS011;55230;42.602;23.470;2022-12-16T01:51:08;16.33;;;10.00;;
11052;SDS011;55230;42.602;23.470;2022-12-16T01:53:41;14.57;;;10.37;;
11052;SDS011;55230;42.602;23.470;2022-12-16T01:56:09;15.37;;;10.33;;
11052;SDS011;55230;42.602;23.470;2022-12-16T01:58:41;13.70;;;10.43;;
11052;SDS011;55230;42.602;23.470;2022-12-16T02:01:10;16.20;;;11.73;;
11052;SDS011;55230;42.602;23.470;2022-12-16T02:03:38;119.40;;;54.47;;
11052;SDS011;55230;42.602;23.470;2022-12-16T02:06:07;219.83;;;53.60;;
11052;SDS011;55230;42.602;23.470;2022-12-16T02:08:34;180.97;;;55.40;;
11052;SDS011;55230;42.602;23.470;2022-12-16T02:11:10;85.07;;;46.47;;
11052;SDS011;55230;42.602;23.470;2022-12-16T02:14:00;54.50;;;32.53;;
11052;SDS011;55230;42.602;23.470;2022-12-16T02:16:53;73.60;;;42.33;;
11052;SDS011;55230;42.602;23.470;2022-12-16T02:19:33;36.07;;;22.70;;
11052;SDS011;55230;42.602;23.470;2022-12-16T02:22:36;25.13;;;15.70;;
11052;SDS011;55230;42.602;23.470;2022-12-16T02:25:18;17.60;;;11.17;;
11052;SDS011;55230;42.602;23.470;2022-12-16T02:28:01;16.80;;;11.63;;
11052;SDS011;55230;42.602;23.470;2022-12-16T02:33:41;16.03;;;11.40;;
11052;SDS011;55230;42.602;23.470;2022-12-16T02:36:17;14.77;;;10.80;;
11052;SDS011;55230;42.602;23.470;2022-12-16T02:38:53;33.23;;;21.17;;
11052;SDS011;55230;42.602;23.470;2022-12-16T02:41:24;50.83;;;33.13;;
11052;SDS011;55230;42.602;23.470;2022-12-16T02:43:58;49.40;;;32.13;;
11052;SDS011;55230;42.602;23.470;2022-12-16T02:46:31;54.57;;;34.33;;
11052;SDS011;55230;42.602;23.470;2022-12-16T02:49:03;192.03;;;44.87;;
11052;SDS011;55230;42.602;23.470;2022-12-16T02:51:31;375.13;;;50.33;;
11052;SDS011;55230;42.602;23.470;2022-12-16T02:54:01;782.50;;;78.97;;
11052;SDS011;55230;42.602;23.470;2022-12-16T02:56:32;591.93;;;65.90;;
11052;SDS011;55230;42.602;23.470;2022-12-16T02:59:14;567.67;;;67.07;;
11052;SDS011;55230;42.602;23.470;2022-12-16T03:01:51;585.00;;;57.40;;
11052;SDS011;55230;42.602;23.470;2022-12-16T03:04:24;385.37;;;53.17;;
11052;SDS011;55230;42.602;23.470;2022-12-16T03:06:56;496.13;;;60.37;;
11052;SDS011;55230;42.602;23.470;2022-12-16T03:09:27;270.50;;;47.40;;
11052;SDS011;55230;42.602;23.470;2022-12-16T03:11:57;274.77;;;55.97;;
11052;SDS011;55230;42.602;23.470;2022-12-16T03:14:28;245.87;;;54.47;;
11052;SDS011;55230;42.602;23.470;2022-12-16T03:17:00;229.77;;;53.13;;
11052;SDS011;55230;42.602;23.470;2022-12-16T03:19:29;250.00;;;57.47;;
11052;SDS011;55230;42.602;23.470;2022-12-16T03:21:58;136.50;;;50.90;;
11052;SDS011;55230;42.602;23.470;2022-12-16T03:24:29;154.93;;;51.57;;
11052;SDS011;55230;42.602;23.470;2022-12-16T03:26:59;277.57;;;60.93;;
11052;SDS011;55230;42.602;23.470;2022-12-16T03:29:36;469.57;;;83.43;;
11052;SDS011;55230;42.602;23.470;2022-12-16T03:32:12;614.60;;;82.93;;
11052;SDS011;55230;42.602;23.470;2022-12-16T03:34:43;481.10;;;72.70;;
11052;SDS011;55230;42.602;23.470;2022-12-16T03:37:17;346.80;;;58.07;;
11052;SDS011;55230;42.602;23.470;2022-12-16T03:39:48;231.83;;;54.67;;
11052;SDS011;55230;42.602;23.470;2022-12-16T03:42:18;89.87;;;46.60;;
11052;SDS011;55230;42.602;23.470;2022-12-16T03:44:45;580.20;;;82.33;;
11052;SDS011;55230;42.602;23.470;2022-12-16T03:47:15;653.10;;;84.57;;
11052;SDS011;55230;42.602;23.470;2022-12-16T03:49:42;588.77;;;75.50;;
11052;SDS011;55230;42.602;23.470;2022-12-16T03:52:09;46.30;;;26.73;;
11052;SDS011;55230;42.602;23.470;2022-12-16T03:54:36;51.33;;;27.37;;
11052;SDS011;55230;42.602;23.470;2022-12-16T03:57:03;57.80;;;33.07;;
11052;SDS011;55230;42.602;23.470;2022-12-16T03:59:30;478.27;;;82.33;;
11052;SDS011;55230;42.602;23.470;2022-12-16T04:01:56;813.00;;;112.70;;
11052;SDS011;55230;42.602;23.470;2022-12-16T04:04:25;1458.83;;;177.67;;
11052;SDS011;55230;42.602;23.470;2022-12-16T04:06:52;1560.60;;;180.07;;
11052;SDS011;55230;42.602;23.470;2022-12-16T04:09:33;1456.10;;;168.10;;
11052;SDS011;55230;42.602;23.470;2022-12-16T04:11:59;1223.00;;;153.93;;
11052;SDS011;55230;42.602;23.470;2022-12-16T04:14:43;743.53;;;118.10;;
11052;SDS011;55230;42.602;23.470;2022-12-16T04:17:27;1123.03;;;137.77;;
11052;SDS011;55230;42.602;23.470;2022-12-16T04:20:13;601.97;;;89.80;;
11052;SDS011;55230;42.602;23.470;2022-12-16T04:22:58;820.23;;;107.70;;
11052;SDS011;55230;42.602;23.470;2022-12-16T04:25:43;605.80;;;91.23;;
11052;SDS011;55230;42.602;23.470;2022-12-16T04:28:09;568.70;;;92.47;;
11052;SDS011;55230;42.602;23.470;2022-12-16T04:30:36;448.57;;;95.87;;
11052;SDS011;55230;42.602;23.470;2022-12-16T04:33:03;478.90;;;75.93;;
11052;SDS011;55230;42.602;23.470;2022-12-16T04:35:52;316.20;;;60.60;;
11052;SDS011;55230;42.602;23.470;2022-12-16T04:38:44;247.17;;;60.57;;
11052;SDS011;55230;42.602;23.470;2022-12-16T04:41:28;242.70;;;85.93;;
11052;SDS011;55230;42.602;23.470;2022-12-16T04:44:13;288.33;;;89.43;;
11052;SDS011;55230;42.602;23.470;2022-12-16T04:46:57;591.30;;;91.63;;
11052;SDS011;55230;42.602;23.470;2022-12-16T04:49:41;709.80;;;98.77;;
11052;SDS011;55230;42.602;23.470;2022-12-16T04:52:26;351.97;;;77.47;;
11052;SDS011;55230;42.602;23.470;2022-12-16T04:55:11;472.20;;;88.53;;
11052;SDS011;55230;42.602;23.470;2022-12-16T04:57:55;289.53;;;67.67;;
11052;SDS011;55230;42.602;23.470;2022-12-16T05:00:41;449.47;;;84.07;;
11052;SDS011;55230;42.602;23.470;2022-12-16T05:03:26;683.10;;;92.27;;
11052;SDS011;55230;42.602;23.470;2022-12-16T05:06:11;432.73;;;79.70;;
11052;SDS011;55230;42.602;23.470;2022-12-16T05:08:57;291.10;;;67.07;;
11052;SDS011;55230;42.602;23.470;2022-12-16T05:11:41;229.47;;;59.10;;
11052;SDS011;55230;42.602;23.470;2022-12-16T05:14:25;155.03;;;74.63;;
11052;SDS011;55230;42.602;23.470;2022-12-16T05:17:09;94.50;;;50.90;;
11052;SDS011;55230;42.602;23.470;2022-12-16T05:19:53;83.87;;;44.73;;
11052;SDS011;55230;42.602;23.470;2022-12-16T05:22:38;70.53;;;42.13;;
11052;SDS011;55230;42.602;23.470;2022-12-16T05:25:23;66.83;;;36.97;;
11052;SDS011;55230;42.602;23.470;2022-12-16T05:28:08;72.27;;;39.93;;
11052;SDS011;55230;42.602;23.470;2022-12-16T05:30:52;204.20;;;88.83;;
11052;SDS011;55230;42.602;23.470;2022-12-16T05:33:48;671.47;;;97.70;;
11052;SDS011;55230;42.602;23.470;2022-12-16T05:36:32;538.60;;;88.67;;
11052;SDS011;55230;42.602;23.470;2022-12-16T05:39:16;431.73;;;78.80;;
11052;SDS011;55230;42.602;23.470;2022-12-16T05:42:01;512.57;;;83.63;;
11052;SDS011;55230;42.602;23.470;2022-12-16T05:44:54;360.67;;;69.07;;
11052;SDS011;55230;42.602;23.470;2022-12-16T05:47:38;350.73;;;68.83;;
11052;SDS011;55230;42.602;23.470;2022-12-16T05:50:23;241.10;;;69.60;;
11052;SDS011;55230;42.602;23.470;2022-12-16T05:53:07;363.50;;;75.23;;
11052;SDS011;55230;42.602;23.470;2022-12-16T05:55:52;647.10;;;80.37;;
11052;SDS011;55230;42.602;23.470;2022-12-16T05:58:37;340.27;;;60.23;;
11052;SDS011;55230;42.602;23.470;2022-12-16T06:01:21;446.10;;;65.80;;
11052;SDS011;55230;42.602;23.470;2022-12-16T06:04:08;93.03;;;47.23;;
11052;SDS011;55230;42.602;23.470;2022-12-16T06:06:52;472.00;;;74.57;;
11052;SDS011;55230;42.602;23.470;2022-12-16T06:09:39;138.87;;;48.13;;
11052;SDS011;55230;42.602;23.470;2022-12-16T06:12:24;46.73;;;26.37;;
11052;SDS011;55230;42.602;23.470;2022-12-16T06:15:12;54.30;;;30.37;;
11052;SDS011;55230;42.602;23.470;2022-12-16T06:17:59;62.83;;;33.93;;
11052;SDS011;55230;42.602;23.470;2022-12-16T06:20:43;68.90;;;36.67;;
11052;SDS011;55230;42.602;23.470;2022-12-16T06:23:27;439.63;;;81.57;;
11052;SDS011;55230;42.602;23.470;2022-12-16T06:26:12;916.43;;;101.03;;
11052;SDS011;55230;42.602;23.470;2022-12-16T06:28:56;455.23;;;64.33;;
11052;SDS011;55230;42.602;23.470;2022-12-16T06:31:42;855.40;;;97.80;;
11052;SDS011;55230;42.602;23.470;2022-12-16T06:34:26;556.60;;;83.03;;
11052;SDS011;55230;42.602;23.470;2022-12-16T06:37:10;348.93;;;53.93;;
11052;SDS011;55230;42.602;23.470;2022-12-16T06:39:53;103.77;;;49.60;;
11052;SDS011;55230;42.602;23.470;2022-12-16T06:42:38;76.63;;;43.57;;
11052;SDS011;55230;42.602;23.470;2022-12-16T06:45:22;75.00;;;45.13;;
11052;SDS011;55230;42.602;23.470;2022-12-16T06:48:07;46.30;;;27.00;;
11052;SDS011;55230;42.602;23.470;2022-12-16T06:50:52;80.17;;;50.00;;
11052;SDS011;55230;42.602;23.470;2022-12-16T06:53:35;86.27;;;49.90;;
11052;SDS011;55230;42.602;23.470;2022-12-16T06:56:19;89.57;;;55.13;;
11052;SDS011;55230;42.602;23.470;2022-12-16T06:59:03;66.23;;;41.87;;
11052;SDS011;55230;42.602;23.470;2022-12-16T07:01:48;106.03;;;53.47;;
11052;SDS011;55230;42.602;23.470;2022-12-16T07:04:33;65.30;;;38.30;;
11052;SDS011;55230;42.602;23.470;2022-12-16T07:07:17;84.57;;;47.07;;
11052;SDS011;55230;42.602;23.470;2022-12-16T07:10:02;33.07;;;20.07;;
11052;SDS011;55230;42.602;23.470;2022-12-16T07:12:43;18.10;;;9.80;;
11052;SDS011;55230;42.602;23.470;2022-12-16T07:15:27;18.13;;;9.93;;
11052;SDS011;55230;42.602;23.470;2022-12-16T07:18:11;29.00;;;18.27;;
11052;SDS011;55230;42.602;23.470;2022-12-16T07:20:56;963.13;;;108.33;;
11052;SDS011;55230;42.602;23.470;2022-12-16T07:23:40;965.67;;;114.97;;
11052;SDS011;55230;42.602;23.470;2022-12-16T07:26:24;870.00;;;107.07;;
11052;SDS011;55230;42.602;23.470;2022-12-16T07:29:07;605.07;;;85.03;;
11052;SDS011;55230;42.602;23.470;2022-12-16T07:31:51;355.70;;;66.70;;
11052;SDS011;55230;42.602;23.470;2022-12-16T07:34:35;752.73;;;94.93;;
11052;SDS011;55230;42.602;23.470;2022-12-16T07:37:21;483.23;;;73.10;;
11052;SDS011;55230;42.602;23.470;2022-12-16T07:40:05;80.37;;;43.07;;
11052;SDS011;55230;42.602;23.470;2022-12-16T07:42:50;669.80;;;84.27;;
11052;SDS011;55230;42.602;23.470;2022-12-16T07:45:34;913.20;;;95.33;;
11052;SDS011;55230;42.602;23.470;2022-12-16T07:48:18;563.10;;;71.53;;
11052;SDS011;55230;42.602;23.470;2022-12-16T07:51:02;121.40;;;46.50;;
11052;SDS011;55230;42.602;23.470;2022-12-16T07:53:48;15.50;;;9.57;;
11052;SDS011;55230;42.602;23.470;2022-12-16T07:56:32;239.70;;;55.17;;
11052;SDS011;55230;42.602;23.470;2022-12-16T07:59:16;90.27;;;50.50;;
11052;SDS011;55230;42.602;23.470;2022-12-16T08:02:00;944.27;;;101.33;;
11052;SDS011;55230;42.602;23.470;2022-12-16T08:04:44;239.47;;;59.17;;
11052;SDS011;55230;42.602;23.470;2022-12-16T08:07:28;697.10;;;93.80;;
11052;SDS011;55230;42.602;23.470;2022-12-16T08:10:10;629.30;;;86.73;;
11052;SDS011;55230;42.602;23.470;2022-12-16T08:12:58;403.07;;;65.60;;
11052;SDS011;55230;42.602;23.470;2022-12-16T08:15:42;305.27;;;74.07;;
11052;SDS011;55230;42.602;23.470;2022-12-16T08:18:27;400.43;;;105.03;;
11052;SDS011;55230;42.602;23.470;2022-12-16T08:21:11;196.10;;;61.00;;
11052;SDS011;55230;42.602;23.470;2022-12-16T08:23:55;115.20;;;51.77;;
11052;SDS011;55230;42.602;23.470;2022-12-16T08:26:41;77.93;;;43.77;;
11052;SDS011;55230;42.602;23.470;2022-12-16T08:29:37;74.80;;;42.33;;
11052;SDS011;55230;42.602;23.470;2022-12-16T08:32:21;60.07;;;38.70;;
11052;SDS011;55230;42.602;23.470;2022-12-16T08:35:05;64.20;;;37.20;;
11052;SDS011;55230;42.602;23.470;2022-12-16T08:37:53;58.43;;;36.20;;
11052;SDS011;55230;42.602;23.470;2022-12-16T08:40:37;58.57;;;36.33;;
11052;SDS011;55230;42.602;23.470;2022-12-16T08:43:23;55.10;;;32.73;;
11052;SDS011;55230;42.602;23.470;2022-12-16T08:46:07;53.60;;;32.70;;
11052;SDS011;55230;42.602;23.470;2022-12-16T08:48:51;49.93;;;31.03;;
11052;SDS011;55230;42.602;23.470;2022-12-16T08:51:35;44.37;;;30.87;;
11052;SDS011;55230;42.602;23.470;2022-12-16T08:54:20;43.70;;;28.83;;
11052;SDS011;55230;42.602;23.470;2022-12-16T08:57:04;40.00;;;27.10;;
11052;SDS011;55230;42.602;23.470;2022-12-16T08:59:49;48.23;;;31.40;;
11052;SDS011;55230;42.602;23.470;2022-12-16T09:02:45;60.87;;;34.97;;
11052;SDS011;55230;42.602;23.470;2022-12-16T09:05:29;70.67;;;36.83;;
11052;SDS011;55230;42.602;23.470;2022-12-16T09:08:14;69.57;;;37.07;;
11052;SDS011;55230;42.602;23.470;2022-12-16T09:10:58;380.00;;;48.93;;
11052;SDS011;55230;42.602;23.470;2022-12-16T09:13:43;569.37;;;65.87;;
11052;SDS011;55230;42.602;23.470;2022-12-16T09:16:28;666.23;;;72.70;;
11052;SDS011;55230;42.602;23.470;2022-12-16T09:19:13;755.63;;;86.77;;
11052;SDS011;55230;42.602;23.470;2022-12-16T09:21:57;183.60;;;47.20;;
11052;SDS011;55230;42.602;23.470;2022-12-16T09:24:40;431.10;;;60.27;;
11052;SDS011;55230;42.602;23.470;2022-12-16T09:27:25;534.13;;;71.43;;
11052;SDS011;55230;42.602;23.470;2022-12-16T09:30:09;128.90;;;52.77;;
11052;SDS011;55230;42.602;23.470;2022-12-16T09:32:55;343.57;;;68.67;;
11052;SDS011;55230;42.602;23.470;2022-12-16T09:35:41;561.27;;;73.00;;
11052;SDS011;55230;42.602;23.470;2022-12-16T09:38:25;769.10;;;83.13;;
11052;SDS011;55230;42.602;23.470;2022-12-16T09:41:16;316.80;;;63.60;;
11052;SDS011;55230;42.602;23.470;2022-12-16T09:44:10;281.63;;;60.13;;
11052;SDS011;55230;42.602;23.470;2022-12-16T09:47:03;103.60;;;51.53;;
11052;SDS011;55230;42.602;23.470;2022-12-16T09:49:56;198.77;;;60.33;;
11052;SDS011;55230;42.602;23.470;2022-12-16T09:52:42;154.57;;;53.97;;
11052;SDS011;55230;42.602;23.470;2022-12-16T09:55:29;119.10;;;56.43;;
11052;SDS011;55230;42.602;23.470;2022-12-16T09:58:16;109.60;;;53.20;;
11052;SDS011;55230;42.602;23.470;2022-12-16T10:01:04;115.93;;;54.73;;
11052;SDS011;55230;42.602;23.470;2022-12-16T10:03:49;106.00;;;56.60;;
11052;SDS011;55230;42.602;23.470;2022-12-16T10:06:37;90.73;;;47.83;;
11052;SDS011;55230;42.602;23.470;2022-12-16T10:09:28;100.10;;;51.40;;
11052;SDS011;55230;42.602;23.470;2022-12-16T10:12:23;95.50;;;53.30;;
11052;SDS011;55230;42.602;23.470;2022-12-16T10:15:22;88.90;;;46.77;;
11052;SDS011;55230;42.602;23.470;2022-12-16T10:18:14;80.80;;;46.03;;
11052;SDS011;55230;42.602;23.470;2022-12-16T10:21:08;81.13;;;44.67;;
11052;SDS011;55230;42.602;23.470;2022-12-16T10:24:03;66.37;;;40.50;;
11052;SDS011;55230;42.602;23.470;2022-12-16T10:26:58;67.80;;;39.57;;
11052;SDS011;55230;42.602;23.470;2022-12-16T10:29:50;64.17;;;38.23;;
11052;SDS011;55230;42.602;23.470;2022-12-16T10:32:36;59.00;;;35.77;;
11052;SDS011;55230;42.602;23.470;2022-12-16T10:35:25;61.07;;;36.63;;
11052;SDS011;55230;42.602;23.470;2022-12-16T10:38:14;57.47;;;35.47;;
11052;SDS011;55230;42.602;23.470;2022-12-16T10:41:05;59.70;;;38.27;;
11052;SDS011;55230;42.602;23.470;2022-12-16T10:43:52;46.97;;;32.00;;
11052;SDS011;55230;42.602;23.470;2022-12-16T10:46:38;39.73;;;28.07;;
11052;SDS011;55230;42.602;23.470;2022-12-16T10:49:22;47.83;;;31.20;;
11052;SDS011;55230;42.602;23.470;2022-12-16T10:52:08;47.77;;;31.57;;
11052;SDS011;55230;42.602;23.470;2022-12-16T10:55:02;47.00;;;32.40;;
11052;SDS011;55230;42.602;23.470;2022-12-16T10:58:00;79.03;;;48.00;;
11052;SDS011;55230;42.602;23.470;2022-12-16T11:00:58;63.83;;;40.57;;
11052;SDS011;55230;42.602;23.470;2022-12-16T11:03:41;49.60;;;33.47;;
11052;SDS011;55230;42.602;23.470;2022-12-16T11:06:26;54.10;;;39.23;;
11052;SDS011;55230;42.602;23.470;2022-12-16T11:09:20;42.30;;;28.47;;
11052;SDS011;55230;42.602;23.470;2022-12-16T11:12:13;64.83;;;35.93;;
11052;SDS011;55230;42.602;23.470;2022-12-16T11:15:16;62.43;;;35.40;;
11052;SDS011;55230;42.602;23.470;2022-12-16T11:18:03;100.50;;;46.00;;
11052;SDS011;55230;42.602;23.470;2022-12-16T11:21:02;45.27;;;29.67;;
11052;SDS011;55230;42.602;23.470;2022-12-16T11:23:55;43.13;;;27.73;;
11052;SDS011;55230;42.602;23.470;2022-12-16T11:26:51;66.90;;;38.27;;
11052;SDS011;55230;42.602;23.470;2022-12-16T11:29:47;74.10;;;40.80;;
11052;SDS011;55230;42.602;23.470;2022-12-16T11:32:34;56.20;;;33.53;;
11052;SDS011;55230;42.602;23.470;2022-12-16T11:35:17;48.33;;;30.60;;
11052;SDS011;55230;42.602;23.470;2022-12-16T11:38:05;38.57;;;27.67;;
11052;SDS011;55230;42.602;23.470;2022-12-16T11:40:59;37.20;;;25.70;;
11052;SDS011;55230;42.602;23.470;2022-12-16T11:43:48;40.93;;;26.73;;
11052;SDS011;55230;42.602;23.470;2022-12-16T11:46:35;43.00;;;29.03;;
11052;SDS011;55230;42.602;23.470;2022-12-16T11:49:23;42.27;;;30.40;;
11052;SDS011;55230;42.602;23.470;2022-12-16T11:52:12;42.67;;;28.67;;
11052;SDS011;55230;42.602;23.470;2022-12-16T11:55:00;44.10;;;29.93;;
11052;SDS011;55230;42.602;23.470;2022-12-16T11:57:51;48.83;;;33.47;;
11052;SDS011;55230;42.602;23.470;2022-12-16T12:00:48;43.10;;;28.53;;
11052;SDS011;55230;42.602;23.470;2022-12-16T12:03:38;45.00;;;28.33;;
11052;SDS011;55230;42.602;23.470;2022-12-16T12:06:29;55.50;;;37.93;;
11052;SDS011;55230;42.602;23.470;2022-12-16T12:09:19;46.33;;;30.47;;
11052;SDS011;55230;42.602;23.470;2022-12-16T12:12:13;45.77;;;30.57;;
11052;SDS011;55230;42.602;23.470;2022-12-16T12:15:09;55.57;;;36.90;;
11052;SDS011;55230;42.602;23.470;2022-12-16T12:18:09;70.20;;;50.60;;
11052;SDS011;55230;42.602;23.470;2022-12-16T12:21:00;52.17;;;34.53;;
11052;SDS011;55230;42.602;23.470;2022-12-16T12:23:55;47.37;;;30.97;;
11052;SDS011;55230;42.602;23.470;2022-12-16T12:26:49;54.77;;;37.77;;
11052;SDS011;55230;42.602;23.470;2022-12-16T12:29:43;52.07;;;37.20;;
11052;SDS011;55230;42.602;23.470;2022-12-16T12:32:42;47.47;;;35.57;;
11052;SDS011;55230;42.602;23.470;2022-12-16T12:35:39;53.93;;;33.93;;
11052;SDS011;55230;42.602;23.470;2022-12-16T12:38:38;33.07;;;20.73;;
11052;SDS011;55230;42.602;23.470;2022-12-16T12:41:37;45.73;;;32.50;;
11052;SDS011;55230;42.602;23.470;2022-12-16T12:44:38;16.13;;;12.87;;
11052;SDS011;55230;42.602;23.470;2022-12-16T12:47:33;8.07;;;4.90;;
11052;SDS011;55230;42.602;23.470;2022-12-16T12:50:20;8.10;;;5.00;;
11052;SDS011;55230;42.602;23.470;2022-12-16T12:53:13;5.40;;;4.33;;
11052;SDS011;55230;42.602;23.470;2022-12-16T12:56:08;5.90;;;4.50;;
11052;SDS011;55230;42.602;23.470;2022-12-16T12:59:09;6.70;;;4.50;;
11052;SDS011;55230;42.602;23.470;2022-12-16T13:01:58;23.00;;;17.93;;
11052;SDS011;55230;42.602;23.470;2022-12-16T13:04:44;26.60;;;19.30;;
11052;SDS011;55230;42.602;23.470;2022-12-16T13:07:32;25.07;;;18.83;;
11052;SDS011;55230;42.602;23.470;2022-12-16T13:13:30;25.73;;;18.23;;
11052;SDS011;55230;42.602;23.470;2022-12-16T13:19:43;6.37;;;5.40;;
11052;SDS011;55230;42.602;23.470;2022-12-16T13:22:35;6.80;;;4.97;;
11052;SDS011;55230;42.602;23.470;2022-12-16T13:28:34;5.77;;;5.10;;
11052;SDS011;55230;42.602;23.470;2022-12-16T13:31:19;5.87;;;5.10;;
11052;SDS011;55230;42.602;23.470;2022-12-16T13:34:05;5.97;;;5.17;;
11052;SDS011;55230;42.602;23.470;2022-12-16T13:37:04;7.37;;;5.70;;
11052;SDS011;55230;42.602;23.470;2022-12-16T13:39:56;6.07;;;4.80;;
11052;SDS011;55230;42.602;23.470;2022-12-16T13:42:47;7.33;;;6.00;;
11052;SDS011;55230;42.602;23.470;2022-12-16T13:45:34;6.73;;;5.67;;
11052;SDS011;55230;42.602;23.470;2022-12-16T13:48:25;6.43;;;5.30;;
11052;SDS011;55230;42.602;23.470;2022-12-16T13:54:45;7.77;;;5.67;;
11052;SDS011;55230;42.602;23.470;2022-12-16T13:57:35;5.90;;;5.30;;
11052;SDS011;55230;42.602;23.470;2022-12-16T14:00:24;6.93;;;6.00;;
11052;SDS011;55230;42.602;23.470;2022-12-16T14:03:10;8.83;;;6.00;;
11052;SDS011;55230;42.602;23.470;2022-12-16T14:06:03;7.93;;;5.83;;
11052;SDS011;55230;42.602;23.470;2022-12-16T14:08:49;6.57;;;5.80;;
11052;SDS011;55230;42.602;23.470;2022-12-16T14:11:39;8.63;;;6.50;;
11052;SDS011;55230;42.602;23.470;2022-12-16T14:14:30;8.60;;;6.80;;
11052;SDS011;55230;42.602;23.470;2022-12-16T14:17:20;7.73;;;6.53;;
11052;SDS011;55230;42.602;23.470;2022-12-16T14:20:11;7.77;;;6.50;;
11052;SDS011;55230;42.602;23.470;2022-12-16T14:23:01;11.17;;;7.20;;
11052;SDS011;55230;42.602;23.470;2022-12-16T14:25:59;8.90;;;6.93;;
11052;SDS011;55230;42.602;23.470;2022-12-16T14:28:47;7.83;;;6.23;;
11052;SDS011;55230;42.602;23.470;2022-12-16T14:31:34;7.40;;;6.13;;
11052;SDS011;55230;42.602;23.470;2022-12-16T14:34:20;7.97;;;5.87;;
11052;SDS011;55230;42.602;23.470;2022-12-16T14:37:06;7.63;;;6.20;;
11052;SDS011;55230;42.602;23.470;2022-12-16T14:39:55;7.07;;;6.23;;
11052;SDS011;55230;42.602;23.470;2022-12-16T14:42:39;8.10;;;5.90;;
11052;SDS011;55230;42.602;23.470;2022-12-16T14:45:41;6.77;;;5.43;;
11052;SDS011;55230;42.602;23.470;2022-12-16T14:48:32;6.67;;;5.30;;
11052;SDS011;55230;42.602;23.470;2022-12-16T14:51:22;7.87;;;6.07;;
11052;SDS011;55230;42.602;23.470;2022-12-16T14:54:18;8.23;;;6.00;;
11052;SDS011;55230;42.602;23.470;2022-12-16T14:57:04;8.73;;;6.77;;
11052;SDS011;55230;42.602;23.470;2022-12-16T15:00:03;10.80;;;6.20;;
11052;SDS011;55230;42.602;23.470;2022-12-16T15:02:56;10.40;;;6.10;;
11052;SDS011;55230;42.602;23.470;2022-12-16T15:05:49;12.60;;;8.10;;
11052;SDS011;55230;42.602;23.470;2022-12-16T15:08:35;7.63;;;6.27;;
11052;SDS011;55230;42.602;23.470;2022-12-16T15:11:30;8.07;;;6.20;;
11052;SDS011;55230;42.602;23.470;2022-12-16T15:14:17;12.13;;;7.23;;
11052;SDS011;55230;42.602;23.470;2022-12-16T15:17:05;10.13;;;6.80;;
11052;SDS011;55230;42.602;23.470;2022-12-16T15:20:13;8.23;;;6.43;;
11052;SDS011;55230;42.602;23.470;2022-12-16T15:23:00;7.80;;;6.50;;
11052;SDS011;55230;42.602;23.470;2022-12-16T15:25:47;8.47;;;5.43;;
11052;SDS011;55230;42.602;23.470;2022-12-16T15:28:36;9.23;;;6.57;;
11052;SDS011;55230;42.602;23.470;2022-12-16T15:31:26;9.17;;;6.60;;
11052;SDS011;55230;42.602;23.470;2022-12-16T15:34:22;9.07;;;6.50;;
11052;SDS011;55230;42.602;23.470;2022-12-16T15:37:19;7.93;;;6.60;;
11052;SDS011;55230;42.602;23.470;2022-12-16T15:40:17;13.70;;;10.30;;
11052;SDS011;55230;42.602;23.470;2022-12-16T15:43:04;19.00;;;12.50;;
11052;SDS011;55230;42.602;23.470;2022-12-16T15:45:46;13.83;;;9.80;;
11052;SDS011;55230;42.602;23.470;2022-12-16T15:48:31;13.20;;;9.00;;
11052;SDS011;55230;42.602;23.470;2022-12-16T15:51:19;11.37;;;7.50;;
11052;SDS011;55230;42.602;23.470;2022-12-16T15:54:12;8.37;;;6.57;;